createdAt,value
2018-07-25T00:01:42.352Z,8.00
2018-07-25T00:04:10.489Z,8.30
2018-07-25T00:06:38.404Z,8.43
2018-07-25T00:09:06.601Z,9.07
2018-07-25T00:11:34.511Z,7.93
2018-07-25T00:14:02.425Z,7.73
2018-07-25T00:16:30.560Z,8.23
2018-07-25T00:18:58.473Z,8.50
2018-07-25T00:21:26.537Z,8.40
2018-07-25T00:23:54.660Z,8.57
2018-07-25T00:26:22.572Z,8.63
2018-07-25T00:28:50.913Z,8.10
2018-07-25T00:31:18.837Z,9.00
2018-07-25T00:33:46.760Z,9.20
2018-07-25T00:36:14.662Z,8.80
2018-07-25T00:38:42.588Z,9.00
2018-07-25T00:41:10.749Z,8.27
2018-07-25T00:43:38.894Z,9.00
2018-07-25T00:46:07.024Z,9.53
2018-07-25T00:48:34.919Z,9.30
2018-07-25T00:51:03.429Z,10.00
2018-07-25T00:53:31.348Z,8.70
2018-07-25T00:55:59.520Z,8.80
2018-07-25T00:58:27.672Z,9.07
2018-07-25T01:00:55.793Z,8.73
2018-07-25T01:03:23.940Z,9.70
2018-07-25T01:05:51.827Z,10.27
2018-07-25T01:08:20.024Z,10.00
2018-07-25T01:10:47.939Z,9.20
2018-07-25T01:13:15.865Z,10.10
2018-07-25T01:15:43.993Z,9.80
2018-07-25T01:18:11.904Z,9.77
2018-07-25T01:20:40.053Z,10.57
2018-07-25T01:23:08.198Z,10.13
2018-07-25T01:25:36.360Z,9.37
2018-07-25T01:28:04.264Z,8.90
2018-07-25T01:30:32.163Z,9.57
2018-07-25T01:33:00.326Z,9.50
2018-07-25T01:35:28.473Z,10.07
2018-07-25T01:37:56.650Z,11.27
2018-07-25T01:40:25.292Z,10.30
2018-07-25T01:42:53.470Z,8.80
2018-07-25T01:45:21.639Z,11.03
2018-07-25T01:47:49.783Z,11.10
2018-07-25T01:50:17.954Z,10.33
2018-07-25T01:52:46.568Z,9.80
2018-07-25T01:55:14.709Z,9.17
2018-07-25T01:57:42.864Z,9.60
2018-07-25T02:00:11.037Z,10.13
2018-07-25T02:02:39.201Z,9.30
2018-07-25T02:05:07.906Z,10.00
2018-07-25T02:07:35.824Z,9.90
2018-07-25T02:10:04.398Z,10.90
2018-07-25T02:12:32.322Z,10.60
2018-07-25T02:15:00.477Z,9.47
2018-07-25T02:17:28.634Z,9.73
2018-07-25T02:19:56.805Z,10.60
2018-07-25T02:22:24.731Z,10.30
2018-07-25T02:24:52.870Z,11.23
2018-07-25T02:27:21.098Z,10.63
2018-07-25T02:29:49.278Z,10.40
2018-07-25T02:32:17.206Z,10.63
2018-07-25T02:34:45.357Z,10.90
2018-07-25T02:37:13.524Z,10.33
2018-07-25T02:39:41.749Z,10.20
2018-07-25T02:42:09.937Z,11.47
2018-07-25T02:44:38.078Z,9.77
2018-07-25T02:47:06.000Z,10.70
2018-07-25T02:49:34.165Z,10.30
2018-07-25T02:52:02.341Z,10.70
2018-07-25T02:54:30.521Z,9.87
2018-07-25T02:56:58.602Z,11.47
2018-07-25T02:59:26.383Z,9.97
2018-07-25T03:01:54.549Z,11.87
2018-07-25T03:04:22.689Z,10.30
2018-07-25T03:06:50.624Z,11.67
2018-07-25T03:09:18.774Z,12.10
2018-07-25T03:11:46.941Z,10.50
2018-07-25T03:14:15.110Z,11.03
2018-07-25T03:16:43.056Z,10.83
2018-07-25T03:19:11.176Z,10.93
2018-07-25T03:21:39.346Z,11.20
2018-07-25T03:24:07.506Z,10.80
2018-07-25T03:26:35.449Z,11.47
2018-07-25T03:29:03.645Z,11.10
2018-07-25T03:31:31.819Z,11.93
2018-07-25T03:33:59.948Z,10.70
2018-07-25T03:36:28.101Z,12.13
2018-07-25T03:38:56.305Z,11.60
2018-07-25T03:41:24.212Z,10.90
2018-07-25T03:43:52.139Z,12.33
2018-07-25T03:46:20.291Z,12.17
2018-07-25T03:48:48.464Z,12.17
2018-07-25T03:51:16.637Z,12.13
2018-07-25T03:53:44.806Z,12.13
2018-07-25T03:56:12.945Z,12.30
2018-07-25T03:58:41.097Z,11.70
2018-07-25T04:01:09.252Z,12.20
2018-07-25T04:03:37.406Z,14.87
2018-07-25T04:06:05.673Z,12.60
2018-07-25T04:08:33.580Z,12.20
2018-07-25T04:11:01.738Z,12.53
2018-07-25T04:13:29.905Z,13.17
2018-07-25T04:15:57.817Z,12.33
2018-07-25T04:18:25.988Z,12.00
2018-07-25T04:20:54.160Z,12.63
2018-07-25T04:23:22.316Z,11.97
2018-07-25T04:25:50.489Z,11.90
2018-07-25T04:28:18.648Z,11.93
2018-07-25T04:30:46.805Z,11.93
2018-07-25T04:33:14.956Z,12.57
2018-07-25T04:35:43.118Z,12.53
2018-07-25T04:38:11.273Z,12.00
2018-07-25T04:40:39.204Z,11.70
2018-07-25T04:43:07.116Z,12.10
2018-07-25T04:45:35.288Z,12.97
2018-07-25T04:48:03.440Z,13.53
2018-07-25T04:50:31.360Z,13.23
2018-07-25T04:52:59.537Z,11.83
2018-07-25T04:55:27.700Z,12.90
2018-07-25T04:57:55.877Z,13.70
2018-07-25T05:00:24.017Z,12.03
2018-07-25T05:02:51.934Z,13.90
2018-07-25T05:05:20.093Z,12.07
2018-07-25T05:07:48.012Z,12.87
2018-07-25T05:10:15.924Z,12.83
2018-07-25T05:12:44.079Z,13.90
2018-07-25T05:15:12.029Z,14.00
2018-07-25T05:17:40.197Z,13.33
2018-07-25T05:20:08.357Z,13.17
2018-07-25T05:22:36.525Z,13.77
2018-07-25T05:25:04.712Z,14.47
2018-07-25T05:27:32.644Z,13.77
2018-07-25T05:30:00.875Z,13.33
2018-07-25T05:32:29.079Z,12.70
2018-07-25T05:34:57.272Z,13.97
2018-07-25T05:37:25.223Z,13.07
2018-07-25T05:39:53.148Z,14.10
2018-07-25T05:42:21.080Z,14.73
2018-07-25T05:44:49.233Z,13.30
2018-07-25T05:47:17.390Z,14.40
2018-07-25T05:49:45.299Z,15.43
2018-07-25T05:52:13.505Z,14.13
2018-07-25T05:54:41.703Z,12.30
2018-07-25T05:57:09.633Z,14.30
2018-07-25T05:59:37.776Z,13.80
2018-07-25T06:02:05.706Z,13.13
2018-07-25T06:04:33.630Z,14.27
2018-07-25T06:07:01.790Z,12.40
2018-07-25T06:09:29.944Z,12.80
2018-07-25T06:11:58.109Z,12.60
2018-07-25T06:14:26.244Z,13.63
2018-07-25T06:16:54.405Z,12.97
2018-07-25T06:19:22.578Z,13.43
2018-07-25T06:21:50.737Z,13.40
2018-07-25T06:24:18.893Z,13.50
2018-07-25T06:26:47.069Z,12.50
2018-07-25T06:29:15.228Z,12.50
2018-07-25T06:31:43.396Z,13.43
2018-07-25T06:34:11.320Z,13.77
2018-07-25T06:36:39.485Z,14.10
2018-07-25T06:39:09.382Z,12.60
2018-07-25T06:41:37.673Z,15.47
2018-07-25T06:44:05.912Z,13.80
2018-07-25T06:46:34.089Z,13.77
2018-07-25T06:49:02.273Z,15.00
2018-07-25T06:51:30.414Z,16.30
2018-07-25T06:53:58.580Z,15.60
2018-07-25T06:56:26.721Z,15.67
2018-07-25T06:58:54.876Z,16.40
2018-07-25T07:01:23.053Z,17.30
2018-07-25T07:03:51.209Z,17.70
2018-07-25T07:06:19.376Z,15.50
2018-07-25T07:08:47.546Z,15.37
2018-07-25T07:11:15.693Z,18.70
2018-07-25T07:13:43.865Z,17.50
2018-07-25T07:16:11.769Z,15.30
2018-07-25T07:18:39.913Z,16.87
2018-07-25T07:21:08.113Z,17.27
2018-07-25T07:23:36.293Z,15.27
2018-07-25T07:26:04.457Z,15.40
2018-07-25T07:28:32.638Z,17.33
2018-07-25T07:31:00.800Z,16.20
2018-07-25T07:33:28.961Z,16.43
2018-07-25T07:35:56.879Z,16.00
2018-07-25T07:38:25.124Z,16.73
2018-07-25T07:40:53.027Z,16.73
2018-07-25T07:43:21.196Z,16.80
2018-07-25T07:45:49.338Z,15.93
2018-07-25T07:48:17.505Z,16.50
2018-07-25T07:50:45.477Z,14.63
2018-07-25T07:53:13.669Z,15.03
2018-07-25T07:55:41.849Z,14.10
2018-07-25T07:58:10.073Z,16.27
2018-07-25T08:00:38.237Z,13.00
2018-07-25T08:03:07.070Z,16.50
2018-07-25T08:05:34.996Z,13.67
2018-07-25T08:08:03.182Z,16.30
2018-07-25T08:10:31.334Z,14.77
2018-07-25T08:12:59.496Z,16.80
2018-07-25T08:15:27.649Z,15.77
2018-07-25T08:17:55.824Z,17.20
2018-07-25T08:20:23.980Z,15.40
2018-07-25T08:22:52.137Z,17.13
2018-07-25T08:25:20.290Z,15.10
2018-07-25T08:27:48.194Z,15.83
2018-07-25T08:30:16.345Z,14.97
2018-07-25T08:32:44.512Z,15.67
2018-07-25T08:35:12.692Z,15.93
2018-07-25T08:37:40.853Z,16.20
2018-07-25T08:40:09.033Z,16.77
2018-07-25T08:42:37.226Z,16.20
2018-07-25T08:45:06.177Z,17.60
2018-07-25T08:47:34.353Z,17.10
2018-07-25T08:50:02.505Z,16.20
2018-07-25T08:52:30.721Z,17.90
2018-07-25T08:54:58.842Z,17.80
2018-07-25T08:57:27.005Z,18.10
2018-07-25T08:59:55.149Z,19.50
2018-07-25T09:02:23.313Z,17.83
2018-07-25T09:04:51.221Z,19.47
2018-07-25T09:07:19.393Z,20.40
2018-07-25T09:09:47.565Z,17.83
2018-07-25T09:12:15.700Z,17.00
2018-07-25T09:14:44.210Z,16.70
2018-07-25T09:17:12.359Z,18.47
2018-07-25T09:19:40.554Z,15.47
2018-07-25T09:22:08.722Z,15.90
2018-07-25T09:24:36.860Z,16.33
2018-07-25T09:27:05.046Z,16.07
2018-07-25T09:29:33.229Z,15.77
2018-07-25T09:32:01.397Z,13.50
2018-07-25T09:34:29.566Z,15.70
2018-07-25T09:36:57.748Z,14.77
2018-07-25T09:39:25.925Z,14.67
2018-07-25T09:41:53.837Z,14.50
2018-07-25T09:44:22.005Z,18.50
2018-07-25T09:46:50.015Z,13.87
2018-07-25T09:49:18.143Z,16.80
2018-07-25T09:51:46.692Z,12.70
2018-07-25T09:54:14.865Z,13.87
2018-07-25T09:56:43.031Z,13.90
2018-07-25T09:59:11.049Z,14.07
2018-07-25T10:01:39.201Z,16.50
2018-07-25T10:04:07.340Z,15.20
2018-07-25T10:06:35.280Z,13.63
2018-07-25T10:09:03.268Z,17.60
2018-07-25T10:11:31.188Z,14.47
2018-07-25T10:13:59.362Z,13.27
2018-07-25T10:16:27.526Z,15.50
2018-07-25T10:18:55.456Z,16.93
2018-07-25T10:21:23.601Z,15.40
2018-07-25T10:23:51.516Z,15.87
2018-07-25T10:26:19.708Z,16.97
2018-07-25T10:28:47.623Z,17.40
2018-07-25T10:31:15.756Z,16.67
2018-07-25T10:33:43.916Z,15.87
2018-07-25T10:36:12.084Z,14.60
2018-07-25T10:38:40.241Z,15.90
2018-07-25T10:41:08.505Z,13.10
2018-07-25T10:43:36.440Z,11.40
2018-07-25T10:46:04.345Z,11.47
2018-07-25T10:48:32.509Z,10.10
2018-07-25T10:51:00.668Z,9.20
2018-07-25T10:53:28.813Z,11.23
2018-07-25T10:55:57.024Z,10.30
2018-07-25T10:58:25.120Z,9.20
2018-07-25T11:00:53.029Z,9.73
2018-07-25T11:03:21.196Z,7.93
2018-07-25T11:05:49.331Z,7.83
2018-07-25T11:08:17.482Z,7.00
2018-07-25T11:10:45.621Z,7.70
2018-07-25T11:13:20.097Z,9.40
2018-07-25T11:15:48.008Z,7.67
2018-07-25T11:18:16.273Z,8.40
2018-07-25T11:20:44.424Z,9.47
2018-07-25T11:23:12.716Z,7.63
2018-07-25T11:25:40.757Z,8.10
2018-07-25T11:28:08.926Z,7.70
2018-07-25T11:30:36.838Z,6.90
2018-07-25T11:33:05.001Z,7.60
2018-07-25T11:35:33.129Z,6.43
2018-07-25T11:38:01.355Z,6.53
2018-07-25T11:40:29.516Z,6.00
2018-07-25T11:42:57.412Z,6.30
2018-07-25T11:45:25.560Z,6.95
2018-07-25T11:47:53.702Z,6.67
2018-07-25T11:50:21.836Z,6.83
2018-07-25T11:52:49.748Z,6.67
2018-07-25T11:55:17.921Z,5.47
2018-07-25T11:57:46.136Z,5.07
2018-07-25T12:00:14.296Z,5.42
2018-07-25T12:02:42.459Z,4.67
2018-07-25T12:05:10.616Z,4.95
2018-07-25T12:07:38.769Z,4.50
2018-07-25T12:10:06.912Z,4.12
2018-07-25T12:12:35.074Z,4.30
2018-07-25T12:15:03.223Z,4.28
2018-07-25T12:17:31.162Z,4.08
2018-07-25T12:19:59.330Z,3.72
2018-07-25T12:22:27.464Z,3.33
2018-07-25T12:24:55.604Z,2.90
2018-07-25T12:27:23.785Z,3.52
2018-07-25T12:29:51.700Z,3.22
2018-07-25T12:32:19.870Z,3.22
2018-07-25T12:34:48.032Z,3.17
2018-07-25T12:37:15.964Z,3.80
2018-07-25T12:39:44.129Z,3.30
2018-07-25T12:42:12.286Z,3.75
2018-07-25T12:44:40.428Z,4.53
2018-07-25T12:47:08.580Z,3.92
2018-07-25T12:49:36.733Z,3.62
2018-07-25T12:52:04.886Z,4.50
2018-07-25T12:54:33.029Z,3.85
2018-07-25T12:57:01.184Z,4.20
2018-07-25T12:59:29.107Z,3.60
2018-07-25T13:01:57.254Z,3.77
2018-07-25T13:04:25.416Z,3.72
2018-07-25T13:06:53.545Z,3.20
2018-07-25T13:09:21.460Z,3.05
2018-07-25T13:11:49.389Z,2.90
2018-07-25T13:14:17.598Z,3.90
2018-07-25T13:16:45.764Z,3.92
2018-07-25T13:19:13.655Z,3.42
2018-07-25T13:21:41.851Z,3.27
2018-07-25T13:24:09.770Z,2.90
2018-07-25T13:26:37.922Z,3.67
2018-07-25T13:29:05.841Z,3.70
2018-07-25T13:31:33.769Z,3.65
2018-07-25T13:34:01.934Z,3.33
2018-07-25T13:36:30.076Z,3.22
2018-07-25T13:38:58.248Z,3.37
2018-07-25T13:41:26.416Z,3.15
2018-07-25T13:43:54.598Z,3.65
2018-07-25T13:46:22.905Z,2.83
2018-07-25T13:48:50.695Z,3.15
2018-07-25T13:51:18.838Z,3.27
2018-07-25T13:53:47.077Z,2.60
2018-07-25T13:56:14.978Z,2.92
2018-07-25T13:58:43.135Z,2.80
2018-07-25T14:01:11.156Z,3.65
2018-07-25T14:03:39.309Z,3.30
2018-07-25T14:06:07.225Z,3.33
2018-07-25T14:08:35.379Z,3.27
2018-07-25T14:11:03.300Z,3.70
2018-07-25T14:13:31.205Z,3.60
2018-07-25T14:15:59.349Z,2.92
2018-07-25T14:18:27.288Z,3.60
2018-07-25T14:20:55.184Z,3.52
2018-07-25T14:23:23.338Z,3.87
2018-07-25T14:25:51.241Z,3.08
2018-07-25T14:28:19.143Z,3.72
2018-07-25T14:30:47.278Z,3.42
2018-07-25T14:33:15.193Z,3.72
2018-07-25T14:35:43.326Z,4.03
2018-07-25T14:38:11.245Z,5.33
2018-07-25T14:40:39.405Z,4.03
2018-07-25T14:43:07.573Z,3.97
2018-07-25T14:45:35.485Z,3.80
2018-07-25T14:48:03.388Z,3.67
2018-07-25T14:50:31.331Z,3.98
2018-07-25T14:52:59.491Z,3.83
2018-07-25T14:55:27.388Z,3.72
2018-07-25T14:57:55.532Z,3.70
2018-07-25T15:00:26.034Z,3.08
2018-07-25T15:02:54.278Z,3.90
2018-07-25T15:05:22.209Z,3.10
2018-07-25T15:07:50.385Z,2.73
2018-07-25T15:10:18.543Z,2.77
2018-07-25T15:12:51.885Z,2.60
2018-07-25T15:15:19.797Z,2.45
2018-07-25T15:17:47.752Z,1.90
2018-07-25T15:20:15.643Z,1.75
2018-07-25T15:22:43.849Z,2.58
2018-07-25T15:25:11.744Z,2.12
2018-07-25T15:27:39.929Z,2.70
2018-07-25T15:30:08.328Z,2.75
2018-07-25T15:32:36.245Z,3.05
2018-07-25T15:35:04.209Z,3.10
2018-07-25T15:37:32.388Z,2.60
2018-07-25T15:40:00.536Z,3.50
2018-07-25T15:42:28.745Z,3.07
2018-07-25T15:44:56.918Z,3.00
2018-07-25T15:47:25.121Z,3.60
2018-07-25T15:49:53.212Z,3.27
2018-07-25T15:52:21.123Z,3.20
2018-07-25T15:54:49.276Z,3.77
2018-07-25T15:57:17.436Z,3.40
2018-07-25T15:59:45.590Z,3.37
2018-07-25T16:02:13.742Z,3.13
2018-07-25T16:04:41.897Z,3.10
2018-07-25T16:07:10.085Z,3.07
2018-07-25T16:09:38.359Z,3.17
2018-07-25T16:12:06.509Z,3.50
2018-07-25T16:14:34.689Z,2.50
2018-07-25T16:17:02.878Z,3.43
2018-07-25T16:19:30.778Z,3.20
2018-07-25T16:21:58.945Z,2.80
2018-07-25T16:24:27.133Z,2.70
2018-07-25T16:26:55.403Z,2.70
2018-07-25T16:29:23.341Z,3.00
2018-07-25T16:31:51.498Z,3.00
2018-07-25T16:34:19.669Z,3.40
2018-07-25T16:36:47.861Z,3.23
2018-07-25T16:39:17.181Z,3.40
2018-07-25T16:41:45.409Z,3.67
2018-07-25T16:44:13.583Z,3.90
2018-07-25T16:46:41.756Z,3.23
2018-07-25T16:49:09.929Z,3.40
2018-07-25T16:51:38.097Z,3.73
2018-07-25T16:54:06.277Z,3.40
2018-07-25T16:56:34.505Z,3.43
2018-07-25T16:59:02.372Z,3.10
2018-07-25T17:01:30.356Z,3.97
2018-07-25T17:03:58.503Z,3.40
2018-07-25T17:06:26.669Z,3.40
2018-07-25T17:08:54.829Z,3.27
2018-07-25T17:11:22.980Z,2.93
2018-07-25T17:13:50.916Z,3.80
2018-07-25T17:16:19.061Z,3.20
2018-07-25T17:18:47.216Z,4.90
2018-07-25T17:21:15.350Z,6.20
2018-07-25T17:23:43.501Z,8.67
2018-07-25T17:26:11.452Z,4.83
2018-07-25T17:28:39.620Z,3.93
2018-07-25T17:31:07.782Z,3.93
2018-07-25T17:33:35.684Z,4.37
2018-07-25T17:36:03.870Z,4.47
2018-07-25T17:38:32.025Z,3.90
2018-07-25T17:41:00.235Z,10.80
2018-07-25T17:43:28.349Z,5.73
2018-07-25T17:45:56.531Z,11.23
2018-07-25T17:48:24.687Z,8.87
2018-07-25T17:50:52.857Z,5.47
2018-07-25T17:53:21.017Z,4.30
2018-07-25T17:55:49.189Z,4.73
2018-07-25T17:58:17.344Z,4.57
2018-07-25T18:00:45.268Z,4.27
2018-07-25T18:03:13.469Z,4.00
2018-07-25T18:05:41.374Z,4.10
2018-07-25T18:08:09.293Z,4.40
2018-07-25T18:10:37.438Z,5.00
2018-07-25T18:15:15.819Z,4.00
2018-07-25T18:17:44.013Z,3.90
2018-07-25T18:20:12.175Z,3.90
2018-07-25T18:22:40.148Z,4.10
2018-07-25T18:25:08.261Z,3.80
2018-07-25T18:27:36.411Z,4.03
2018-07-25T18:30:05.345Z,4.70
2018-07-25T18:32:33.521Z,4.23
2018-07-25T18:35:01.673Z,3.90
2018-07-25T18:37:29.845Z,4.60
2018-07-25T18:39:58.009Z,4.63
2018-07-25T18:42:26.137Z,5.40
2018-07-25T18:44:54.309Z,7.30
2018-07-25T18:47:22.481Z,10.20
2018-07-25T18:49:50.389Z,13.87
2018-07-25T18:52:18.553Z,12.30
2018-07-25T18:54:46.710Z,12.37
2018-07-25T18:57:14.881Z,12.00
2018-07-25T18:59:43.038Z,9.00
2018-07-25T19:02:11.393Z,7.97
2018-07-25T19:04:39.554Z,6.00
2018-07-25T19:07:07.753Z,4.00
2018-07-25T19:09:35.932Z,5.10
2018-07-25T19:12:03.876Z,5.07
2018-07-25T19:15:34.492Z,5.60
2018-07-25T19:18:02.676Z,4.90
2018-07-25T19:20:30.579Z,5.60
2018-07-25T19:22:58.730Z,5.00
2018-07-25T19:25:26.877Z,4.70
2018-07-25T19:27:55.048Z,5.57
2018-07-25T19:30:23.226Z,4.90
2018-07-25T19:32:51.729Z,5.30
2018-07-25T19:35:19.924Z,4.97
2018-07-25T19:37:48.101Z,4.90
2018-07-25T19:40:16.253Z,4.70
2018-07-25T19:42:44.465Z,5.30
2018-07-25T19:45:12.608Z,4.73
2018-07-25T19:47:40.557Z,5.70
2018-07-25T19:50:08.749Z,4.90
2018-07-25T19:52:36.681Z,5.03
2018-07-25T19:55:04.917Z,6.40
2018-07-25T19:57:33.337Z,5.00
2018-07-25T20:00:01.252Z,5.57
2018-07-25T20:02:29.452Z,5.17
2018-07-25T20:04:57.617Z,5.83
2018-07-25T20:07:25.846Z,5.60
2018-07-25T20:09:53.737Z,5.40
2018-07-25T20:12:21.918Z,5.10
2018-07-25T20:14:55.280Z,5.80
2018-07-25T20:17:24.042Z,5.37
2018-07-25T20:19:52.231Z,5.17
2018-07-25T20:22:20.437Z,5.70
2018-07-25T20:24:48.665Z,5.40
2018-07-25T20:27:16.868Z,6.27
2018-07-25T20:29:45.087Z,5.90
2018-07-25T20:32:13.213Z,5.97
2018-07-25T20:34:41.406Z,5.53
2018-07-25T20:37:09.899Z,5.70
2018-07-25T20:39:38.082Z,5.83
2018-07-25T20:42:06.346Z,5.30
2018-07-25T20:44:34.452Z,6.47
2018-07-25T20:47:02.404Z,5.57
2018-07-25T20:49:30.349Z,5.70
2018-07-25T20:51:58.271Z,7.17
2018-07-25T20:54:26.260Z,5.73
2018-07-25T20:56:54.190Z,6.43
2018-07-25T20:59:22.365Z,6.33
2018-07-25T21:01:50.272Z,5.73
2018-07-25T21:04:18.435Z,6.07
2018-07-25T21:06:46.610Z,6.10
2018-07-25T21:09:14.757Z,5.90
2018-07-25T21:11:42.938Z,5.80
2018-07-25T21:14:11.098Z,6.07
2018-07-25T21:16:39.249Z,5.33
2018-07-25T21:19:07.177Z,5.60
2018-07-25T21:21:35.072Z,6.97
2018-07-25T21:24:03.309Z,5.80
2018-07-25T21:26:31.469Z,5.20
2018-07-25T21:28:59.385Z,6.33
2018-07-25T21:31:27.539Z,6.47
2018-07-25T21:33:55.717Z,5.97
2018-07-25T21:36:23.843Z,6.10
2018-07-25T21:38:51.753Z,6.37
2018-07-25T21:41:19.981Z,6.60
2018-07-25T21:43:48.197Z,5.93
2018-07-25T21:46:16.338Z,6.20
2018-07-25T21:48:44.500Z,5.60
2018-07-25T21:51:12.431Z,7.70
2018-07-25T21:53:40.572Z,7.17
2018-07-25T21:56:08.472Z,6.83
2018-07-25T21:58:36.650Z,6.67
2018-07-25T22:01:10.261Z,6.53
2018-07-25T22:03:38.181Z,6.67
2018-07-25T22:06:06.386Z,5.80
2018-07-25T22:08:34.562Z,6.33
2018-07-25T22:11:02.727Z,6.57
2018-07-25T22:13:31.129Z,7.50
2018-07-25T22:15:59.392Z,6.43
2018-07-25T22:18:27.578Z,7.17
2018-07-25T22:20:55.738Z,6.40
2018-07-25T22:23:23.901Z,6.20
2018-07-25T22:28:26.650Z,6.70
2018-07-25T22:30:54.758Z,6.13
2018-07-25T22:33:22.912Z,6.97
2018-07-25T22:35:51.049Z,6.23
2018-07-25T22:38:19.209Z,7.63
2018-07-25T22:40:47.128Z,7.33
2018-07-25T22:43:15.305Z,8.07
2018-07-25T22:45:43.452Z,6.30
2018-07-25T22:48:11.625Z,6.77
2018-07-25T22:50:40.621Z,7.53
2018-07-25T22:53:08.789Z,7.57
2018-07-25T22:55:37.068Z,6.90
2018-07-25T22:58:05.414Z,7.70
2018-07-25T23:00:33.565Z,7.27
2018-07-25T23:03:01.724Z,7.10
2018-07-25T23:05:29.881Z,6.73
2018-07-25T23:07:58.017Z,7.40
2018-07-25T23:10:26.003Z,7.03
2018-07-25T23:12:54.255Z,7.07
2018-07-25T23:15:22.458Z,7.40
2018-07-25T23:17:50.865Z,7.07
2018-07-25T23:20:18.784Z,6.53
2018-07-25T23:22:54.585Z,6.87
2018-07-25T23:25:23.014Z,6.83
2018-07-25T23:27:51.538Z,6.90
2018-07-25T23:30:19.696Z,7.30
2018-07-25T23:32:48.400Z,6.77
2018-07-25T23:35:16.564Z,7.90
2018-07-25T23:37:44.750Z,7.10
2018-07-25T23:40:12.957Z,6.80
2018-07-25T23:42:41.148Z,6.90
2018-07-25T23:45:09.317Z,7.30
2018-07-25T23:47:37.472Z,7.30
2018-07-25T23:50:05.692Z,7.47
2018-07-25T23:52:33.836Z,7.27
2018-07-25T23:55:01.769Z,7.63
2018-07-25T23:57:29.684Z,7.77
2018-07-25T23:59:57.624Z,8.00
